Flight Track Log - Related Links

Times and Time Zones

All times are in EDT time to prevent confusion due to time zone crossing. See the BJS542 flight status page for this flight to view local times or setup timezone preferences in your user account.

Time Position Orientation Groundspeed Altitude Reporting Facility
EDT Latitude Longitude Course Direction KTS MPH feet Rate Location/Type
Sun 09:15:34 AM 39.1167 -84.4000 131° Southeast 142 163 1,700  Level Cincinnati TRACON
Sun 09:16:40 AM 39.0833 -84.3500 131° Southeast 194 223 5,800 3,741 Climbing Cincinnati TRACON
Sun 09:16:59 AM 39.0614 -84.3519 184° South 215 247 7,000 4,650 Climbing Indianapolis Center
Sun 09:18:00 AM 38.9894 -84.3489 178° South 248 285 12,000 3,024 Climbing Indianapolis Center
Sun 09:19:02 AM 38.8989 -84.3592 185° South 320 368 13,200 2,032 Climbing Indianapolis Center
Sun 09:20:04 AM 38.8033 -84.3706 185° South 341 392 16,200 3,532 Climbing Indianapolis Center
Sun 09:21:06 AM 38.7133 -84.3692 179° South 324 373 20,500 4,049 Climbing Indianapolis Center
Sun 09:22:07 AM 38.6225 -84.3525 172° South 336 387 24,500 3,268 Climbing Indianapolis Center
Sun 09:23:09 AM 38.5267 -84.3336 171° South 347 399 27,200 1,645 Climbing Indianapolis Center
Sun 09:24:11 AM 38.4128 -84.2708 157° South 385 443 27,900 387 Climbing Indianapolis Center
Sun 09:25:13 AM 38.3000 -84.2553 174° South 407 468 28,000 49 Climbing Indianapolis Center
Sun 09:26:14 AM 38.1867 -84.2381 173° South 409 471 28,000  Level Indianapolis Center
Sun 09:27:16 AM 38.0750 -84.2208 173° South 404 465 28,000  Level Indianapolis Center
Sun 09:28:18 AM 37.9639 -84.2022 172° South 403 464 28,000  Level Indianapolis Center
Sun 09:29:20 AM 37.8533 -84.1858 173° South 399 459 28,000  Level Indianapolis Center
Sun 09:30:22 AM 37.7267 -84.1672 173° South 395 455 28,000  Level Indianapolis Center
Sun 09:31:24 AM 37.6183 -84.1514 173° South 392 451 28,000  Level Indianapolis Center
Sun 09:32:26 AM 37.5125 -84.1342 173° South 386 444 28,000  Level Indianapolis Center
Sun 09:33:28 AM 37.4058 -84.1186 173° South 387 445 28,000  Level Indianapolis Center
Sun 09:34:30 AM 37.3006 -84.1028 173° South 383 441 28,000  Level Indianapolis Center
Sun 09:35:32 AM 37.1775 -84.0839 173° South 382 440 28,000 435 Level Indianapolis Center
Sun 09:36:34 AM 37.0742 -84.0692 174° South 376 433 28,900 484 Climbing Indianapolis Center
Sun 09:37:36 AM 36.9742 -84.0542 173° South 365 420 29,000 48 Climbing Indianapolis Center
Sun 09:38:38 AM 36.8706 -84.0381 173° South 373 429 29,000  Level Indianapolis Center
Sun 09:39:40 AM 36.7664 -84.0219 173° South 377 434 29,000  Level Indianapolis Center
Sun 09:40:42 AM 36.6531 -83.9631 157° South 380 437 29,000  Level Indianapolis Center
Sun 09:41:33 AM 36.5672 -83.9172 157° South 381 438 29,000  Level Atlanta Center
Sun 09:42:33 AM 36.4669 -83.8633 157° South 386 444 29,000  Level Atlanta Center
Sun 09:43:33 AM 36.3647 -83.8042 155° Southeast 397 457 29,000  Level Atlanta Center
Sun 09:44:33 AM 36.2622 -83.7478 156° South 402 463 29,000  Level Atlanta Center
Sun 09:45:33 AM 36.1683 -83.6967 156° South 402 463 29,000  Level Atlanta Center
Sun 09:46:33 AM 36.0658 -83.6381 155° Southeast 402 463 29,000  Level Atlanta Center
Sun 09:47:33 AM 35.9656 -83.5819 156° South 397 457 29,000  Level Atlanta Center
Sun 09:48:33 AM 35.8653 -83.5289 157° South 397 457 29,000 -50 Level Atlanta Center
Sun 09:49:33 AM 35.7669 -83.4756 156° South 397 457 28,900 -1,500 Descending Atlanta Center
Sun 09:50:33 AM 35.6772 -83.4253 156° South 384 442 26,000 -2,900 Descending Atlanta Center
Sun 09:51:33 AM 35.5914 -83.3875 160° South 356 410 23,100 -2,950 Descending Atlanta Center
Sun 09:52:33 AM 35.5078 -83.3753 173° South 320 368 20,100 -3,050 Descending Atlanta Center
Sun 09:53:33 AM 35.4222 -83.3658 175° South 312 359 17,000 -3,000 Descending Atlanta Center
Sun 09:54:33 AM 35.3428 -83.3283 159° South 312 359 14,100 -2,850 Descending Atlanta Center
Sun 09:55:33 AM 35.2694 -83.2806 152° Southeast 312 359 11,300 -2,250 Descending Atlanta Center
Sun 09:56:33 AM 35.2044 -83.2456 156° South 287 330 9,600 -1,600 Descending Atlanta Center
Sun 09:57:33 AM 35.1356 -83.2286 169° South 261 300 8,100 -750 Descending Atlanta Center
Sun 09:58:33 AM 35.0750 -83.2189 173° South 239 275 8,100  Level Atlanta Center
Sun 09:59:33 AM 35.0103 -83.2172 179° South 234 269 8,100  Level Atlanta Center
Sun 10:00:33 AM 34.9436 -83.2306 189° South 241 277 8,100 -50 Level Atlanta Center
Sun 10:01:33 AM 34.8747 -83.2186 172° South 241 277 8,000 -550 Descending Atlanta Center
Sun 10:02:33 AM 34.8100 -83.2267 186° South 241 277 7,000 -1,200 Descending Atlanta Center
Sun 10:03:33 AM 34.7558 -83.2372 189° South 226 260 5,600 -1,000 Descending Atlanta Center
Sun 10:04:33 AM 34.6994 -83.2378 180° South 211 243 5,000 -650 Descending Atlanta Center
Sun 10:05:33 AM 34.6597 -83.2003 142° Southeast 180 207 4,300 -800 Descending Atlanta Center
Sun 10:06:33 AM 34.6197 -83.1578 139° Southeast 180 207 3,400 -400 Descending Atlanta Center
Sun 10:07:33 AM 34.5900 -83.1103 127° Southeast 180 207 3,500 -200 Climbing Atlanta Center
Sun 10:08:33 AM 34.6106 -83.0619 63° Northeast 145 167 3,000 -400 Descending Atlanta Center
Sun 10:09:33 AM 34.6269 -83.0114 68° East 140 161 2,700 -400 Descending Atlanta Center
Sun 10:10:33 AM 34.6431 -82.9683 66° East 145 167 2,200 -350 Descending Atlanta Center
Sun 10:11:33 AM 34.6572 -82.9175 71° East 145 167 2,000 -200 Descending Atlanta Center

Login

Don't have an account? Register now (free) for customized features, flight alerts, and more!